Time;durP1;ratioP1;P1;durP2;ratioP2;P2;SDS_P1;SDS_P2;PMS_P1;PMS_P2;Temp;Humidity;BMP_temperature;BMP_pressure;BME280_temperature;BME280_humidity;BME280_pressure;Samples;Min_cycle;Max_cycle;Signal;HPM_P1;HPM_P2
2024/01/31 00:01:37;;;;;;;12.05;5.07;;;9.50;99.90;;;;;;5041683;28;20033;-71
2024/01/31 00:04:04;;;;;;;10.48;4.32;;;9.50;99.90;;;;;;5042212;28;20022;-70
2024/01/31 00:06:30;;;;;;;10.18;4.50;;;9.60;99.90;;;;;;5025360;28;20061;-70
2024/01/31 00:09:00;;;;;;;7.28;4.32;;;9.50;99.90;;;;;;5026582;28;20024;-71
2024/01/31 00:11:29;;;;;;;10.15;5.40;;;9.50;99.90;;;;;;5041820;28;20405;-72
2024/01/31 00:13:58;;;;;;;15.30;5.18;;;9.50;99.90;;;;;;5041937;28;20056;-72
2024/01/31 00:16:24;;;;;;;8.02;4.93;;;9.50;99.90;;;;;;5058275;28;20025;-72
2024/01/31 00:18:51;;;;;;;12.63;4.32;;;9.50;99.90;;;;;;5042087;28;20095;-72
2024/01/31 00:21:18;;;;;;;10.27;5.07;;;9.50;99.90;;;;;;5024206;28;20029;-72
2024/01/31 00:23:47;;;;;;;7.25;4.25;;;9.50;99.90;;;;;;5024315;28;20029;-72
2024/01/31 00:26:13;;;;;;;7.88;3.80;;;9.50;99.90;;;;;;5039590;28;20552;-72
2024/01/31 00:28:38;;;;;;;6.93;4.05;;;9.50;99.90;;;;;;5023214;28;20113;-72
2024/01/31 00:31:04;;;;;;;7.57;3.90;;;9.50;99.90;;;;;;5037658;28;20029;-72
2024/01/31 00:33:30;;;;;;;7.82;4.43;;;9.50;99.90;;;;;;5040915;28;20428;-71
2024/01/31 00:35:56;;;;;;;11.07;4.50;;;9.50;99.90;;;;;;5040267;28;20672;-71
2024/01/31 00:38:24;;;;;;;13.18;4.78;;;9.40;99.90;;;;;;5036998;28;20055;-71
2024/01/31 00:40:50;;;;;;;10.25;4.95;;;9.50;99.90;;;;;;5036775;28;20044;-71
2024/01/31 00:43:16;;;;;;;7.85;4.07;;;9.50;99.90;;;;;;5052148;28;20022;-71
2024/01/31 00:45:42;;;;;;;8.13;4.55;;;9.60;99.90;;;;;;5043190;28;20074;-71
2024/01/31 00:48:07;;;;;;;8.13;4.80;;;9.60;99.90;;;;;;5021957;28;20021;-71
2024/01/31 00:50:33;;;;;;;7.38;4.18;;;9.60;99.90;;;;;;5038313;28;20029;-71
2024/01/31 00:52:59;;;;;;;12.05;4.32;;;9.60;99.90;;;;;;5041774;28;20033;-71
2024/01/31 00:55:25;;;;;;;7.22;3.67;;;9.60;99.90;;;;;;5041967;28;20025;-71
2024/01/31 00:57:50;;;;;;;11.20;4.20;;;9.60;99.90;;;;;;5042447;28;20037;-71
2024/01/31 01:00:17;;;;;;;12.25;5.18;;;9.60;99.90;;;;;;5039649;28;20041;-71
2024/01/31 01:02:43;;;;;;;7.50;4.07;;;9.60;99.90;;;;;;5031749;28;20038;-71
2024/01/31 01:05:10;;;;;;;14.80;5.35;;;9.60;99.90;;;;;;5022923;28;20105;-71
2024/01/31 01:07:39;;;;;;;7.15;4.32;;;9.60;99.90;;;;;;5042244;28;20032;-71
2024/01/31 01:10:11;;;;;;;9.48;4.13;;;9.60;99.90;;;;;;5039737;28;20064;-71
2024/01/31 01:12:38;;;;;;;11.02;4.38;;;9.60;99.90;;;;;;5039998;28;20041;-72
2024/01/31 01:15:05;;;;;;;7.80;4.53;;;9.60;99.90;;;;;;5038577;28;20444;-71
2024/01/31 01:17:32;;;;;;;9.82;4.20;;;9.60;99.90;;;;;;5035242;28;20034;-71
2024/01/31 01:19:58;;;;;;;12.13;4.68;;;9.60;99.90;;;;;;5040796;28;20072;-71
2024/01/31 01:22:23;;;;;;;8.70;4.78;;;9.60;99.90;;;;;;5019636;28;20046;-71
2024/01/31 01:24:49;;;;;;;7.88;4.35;;;9.60;99.90;;;;;;5039676;28;20021;-71
2024/01/31 01:27:15;;;;;;;6.97;3.20;;;9.50;99.90;;;;;;5037626;28;20092;-71
2024/01/31 01:29:40;;;;;;;12.50;4.30;;;9.60;99.90;;;;;;5053496;28;20033;-71
2024/01/31 01:32:06;;;;;;;8.88;4.32;;;9.50;99.90;;;;;;5038071;28;20109;-71
2024/01/31 01:34:32;;;;;;;12.60;4.15;;;9.60;99.90;;;;;;5039734;28;20555;-71
2024/01/31 01:36:58;;;;;;;10.88;4.45;;;9.50;99.90;;;;;;5040345;28;20082;-71
2024/01/31 01:39:23;;;;;;;8.85;4.78;;;9.50;99.90;;;;;;5038917;28;20021;-71
2024/01/31 01:41:50;;;;;;;10.52;4.40;;;9.50;99.90;;;;;;5021976;28;20086;-71
2024/01/31 01:44:16;;;;;;;11.32;4.05;;;9.50;99.90;;;;;;5022140;28;20025;-71
2024/01/31 01:46:44;;;;;;;18.10;3.72;;;9.60;99.90;;;;;;5038381;28;20036;-71
2024/01/31 01:49:12;;;;;;;11.80;4.88;;;9.50;99.90;;;;;;5038051;28;20101;-71
2024/01/31 01:51:39;;;;;;;9.43;4.53;;;9.50;99.90;;;;;;5036136;28;20036;-71
2024/01/31 01:54:07;;;;;;;10.65;4.80;;;9.50;99.90;;;;;;5041070;28;20034;-71
2024/01/31 01:56:33;;;;;;;7.55;4.40;;;9.60;99.90;;;;;;5037897;28;20123;-71
2024/01/31 01:59:00;;;;;;;5.82;3.55;;;9.60;99.90;;;;;;5034871;28;20210;-71
2024/01/31 02:01:27;;;;;;;8.15;4.22;;;9.60;99.90;;;;;;5021130;28;20045;-71
2024/01/31 02:03:58;;;;;;;11.43;4.57;;;9.60;99.90;;;;;;5008599;28;20037;-71
2024/01/31 02:06:25;;;;;;;10.57;4.33;;;9.60;99.90;;;;;;5023678;28;20212;-71
2024/01/31 02:08:51;;;;;;;8.57;4.07;;;9.60;99.90;;;;;;5017608;28;20039;-71
2024/01/31 02:11:17;;;;;;;10.20;4.88;;;9.50;99.90;;;;;;5020748;28;20161;-71
2024/01/31 02:13:43;;;;;;;9.48;5.40;;;9.50;99.90;;;;;;5038673;28;20041;-71
2024/01/31 02:16:08;;;;;;;10.15;5.25;;;9.60;99.90;;;;;;5021961;28;20033;-71
2024/01/31 02:18:34;;;;;;;10.70;5.03;;;9.50;99.90;;;;;;5039106;28;20044;-71
2024/01/31 02:21:00;;;;;;;9.60;4.72;;;9.50;99.90;;;;;;5010143;28;20032;-72
2024/01/31 02:23:25;;;;;;;9.68;5.15;;;9.50;99.90;;;;;;5036209;28;20401;-72
2024/01/31 02:25:51;;;;;;;14.25;4.95;;;9.50;99.90;;;;;;5037906;28;20826;-72
2024/01/31 02:28:17;;;;;;;12.98;4.93;;;9.40;99.90;;;;;;5041670;28;20033;-72
2024/01/31 02:30:43;;;;;;;12.55;5.53;;;9.40;99.90;;;;;;5040156;28;20030;-72
2024/01/31 02:33:09;;;;;;;12.32;5.63;;;9.40;99.90;;;;;;5041773;28;20076;-72
2024/01/31 02:35:35;;;;;;;11.52;5.28;;;9.40;99.90;;;;;;5044391;28;20067;-72
2024/01/31 02:38:01;;;;;;;13.75;5.10;;;9.30;99.90;;;;;;5058457;28;20444;-72
2024/01/31 02:40:30;;;;;;;11.85;4.40;;;9.30;99.90;;;;;;5042835;28;20546;-72
2024/01/31 02:42:57;;;;;;;9.13;4.68;;;9.30;99.90;;;;;;5038362;28;20029;-72
2024/01/31 02:45:23;;;;;;;15.98;5.82;;;9.20;99.90;;;;;;5042446;28;20026;-71
2024/01/31 02:47:49;;;;;;;11.80;5.80;;;9.90;99.90;;;;;;5041554;28;20482;-72
2024/01/31 02:50:15;;;;;;;9.98;5.20;;;10.10;99.90;;;;;;5042033;28;20034;-72
2024/01/31 02:52:41;;;;;;;11.68;5.40;;;9.90;99.90;;;;;;5038860;28;20029;-72
2024/01/31 02:55:08;;;;;;;11.40;4.68;;;9.80;99.90;;;;;;5043034;28;20509;-72
2024/01/31 02:57:34;;;;;;;12.63;3.92;;;10.10;99.90;;;;;;5041134;28;20032;-72
2024/01/31 03:00:01;;;;;;;10.52;5.03;;;10.00;99.90;;;;;;5042977;28;20501;-72
2024/01/31 03:02:27;;;;;;;9.48;4.65;;;10.30;99.90;;;;;;5038285;28;20041;-72
2024/01/31 03:04:53;;;;;;;10.30;4.13;;;10.50;99.90;;;;;;5039999;28;20087;-72
2024/01/31 03:07:19;;;;;;;8.48;5.03;;;10.60;99.90;;;;;;5038053;28;20037;-72
2024/01/31 03:09:45;;;;;;;12.20;5.47;;;10.50;99.90;;;;;;5036034;28;20030;-72
2024/01/31 03:12:11;;;;;;;9.98;5.03;;;10.40;99.90;;;;;;5042864;28;20429;-72
2024/01/31 03:14:37;;;;;;;14.90;4.95;;;10.20;99.90;;;;;;5039004;28;20033;-70
2024/01/31 03:17:03;;;;;;;15.40;5.43;;;10.00;99.90;;;;;;5024545;28;20494;-72
2024/01/31 03:19:30;;;;;;;8.32;4.72;;;9.90;99.90;;;;;;5041595;28;20621;-72
2024/01/31 03:21:56;;;;;;;9.10;4.65;;;9.70;99.90;;;;;;5044618;28;20036;-72
2024/01/31 03:24:22;;;;;;;11.50;4.43;;;9.50;99.90;;;;;;5025313;28;20037;-72
2024/01/31 03:26:48;;;;;;;10.52;4.57;;;9.40;99.90;;;;;;5042854;28;20033;-72
2024/01/31 03:29:14;;;;;;;16.63;4.60;;;9.40;99.90;;;;;;5041591;28;20103;-72
2024/01/31 03:31:40;;;;;;;9.48;5.15;;;9.30;99.90;;;;;;5041700;28;20116;-72
2024/01/31 03:34:06;;;;;;;12.27;5.80;;;9.20;99.90;;;;;;5039937;28;20507;-72
2024/01/31 03:36:36;;;;;;;10.98;5.60;;;9.20;99.90;;;;;;5040766;28;20082;-72
2024/01/31 03:39:02;;;;;;;18.73;5.25;;;9.10;99.90;;;;;;5041885;28;20028;-72
2024/01/31 03:41:28;;;;;;;13.35;5.03;;;9.10;99.90;;;;;;5038773;28;20052;-72
2024/01/31 03:43:54;;;;;;;8.90;5.03;;;9.10;99.90;;;;;;5039463;28;20519;-72
2024/01/31 03:46:21;;;;;;;10.05;6.13;;;9.00;99.90;;;;;;5040763;28;20030;-72
2024/01/31 03:48:48;;;;;;;16.05;6.00;;;9.00;99.90;;;;;;5043132;28;20049;-72
2024/01/31 03:51:21;;;;;;;10.93;5.85;;;8.90;99.90;;;;;;5038256;28;20026;-72
2024/01/31 03:53:48;;;;;;;12.45;5.90;;;8.90;99.90;;;;;;5037693;28;20519;-72
2024/01/31 03:56:15;;;;;;;13.35;5.65;;;8.90;99.90;;;;;;5037419;28;20029;-72
2024/01/31 03:58:41;;;;;;;15.88;6.43;;;8.90;99.90;;;;;;5042224;28;20033;-72
2024/01/31 04:01:08;;;;;;;12.10;5.25;;;8.90;99.90;;;;;;5043401;28;20071;-72
2024/01/31 04:03:36;;;;;;;17.10;7.15;;;8.80;99.90;;;;;;5025215;28;20029;-72
2024/01/31 04:06:02;;;;;;;10.70;5.47;;;8.80;99.90;;;;;;5024347;28;20025;-72
2024/01/31 04:08:28;;;;;;;19.70;6.00;;;8.80;99.90;;;;;;5055492;28;20028;-71
2024/01/31 04:10:54;;;;;;;12.13;5.53;;;8.80;99.90;;;;;;5038948;28;20067;-71
2024/01/31 04:13:19;;;;;;;9.68;5.47;;;8.80;99.90;;;;;;5038059;28;20036;-71
2024/01/31 04:15:46;;;;;;;11.93;7.05;;;8.80;99.90;;;;;;5036904;28;20037;-71
2024/01/31 04:18:12;;;;;;;9.80;5.35;;;8.70;99.90;;;;;;5039831;28;20035;-71
2024/01/31 04:20:38;;;;;;;14.27;6.53;;;8.80;99.90;;;;;;5035067;28;20398;-71
2024/01/31 04:23:05;;;;;;;18.52;6.18;;;8.70;99.90;;;;;;5040489;28;20477;-71
2024/01/31 04:25:31;;;;;;;10.55;6.20;;;8.70;99.90;;;;;;5036735;28;20041;-71
2024/01/31 04:27:57;;;;;;;13.48;5.85;;;8.70;99.90;;;;;;5042717;28;20499;-71
2024/01/31 04:30:29;;;;;;;13.07;6.25;;;8.70;99.90;;;;;;5037551;28;20040;-71
2024/01/31 04:32:54;;;;;;;17.52;6.72;;;8.70;99.90;;;;;;5042434;28;20037;-71
2024/01/31 04:35:20;;;;;;;24.75;8.50;;;8.70;99.90;;;;;;5041634;28;20098;-71
2024/01/31 04:37:48;;;;;;;19.70;6.82;;;8.70;99.90;;;;;;5040026;28;20030;-71
2024/01/31 04:40:15;;;;;;;15.02;6.00;;;8.70;99.90;;;;;;5035670;28;20111;-72
2024/01/31 04:42:41;;;;;;;13.35;6.93;;;8.70;99.90;;;;;;5040550;28;20053;-71
2024/01/31 04:45:08;;;;;;;14.38;7.55;;;8.70;99.90;;;;;;5036705;28;20047;-72
2024/01/31 04:47:34;;;;;;;13.93;6.28;;;8.70;99.90;;;;;;5040219;28;20037;-71
2024/01/31 04:49:59;;;;;;;13.93;6.07;;;8.70;99.90;;;;;;5040179;28;20026;-72
2024/01/31 04:52:25;;;;;;;14.40;5.45;;;8.70;99.90;;;;;;5054691;28;20033;-71
2024/01/31 04:54:51;;;;;;;16.45;7.85;;;8.70;99.90;;;;;;5040830;28;20120;-71
2024/01/31 04:57:18;;;;;;;16.35;7.13;;;8.70;99.90;;;;;;5039000;28;20056;-71
2024/01/31 04:59:43;;;;;;;13.82;6.55;;;8.70;99.90;;;;;;5038208;28;20068;-71
2024/01/31 05:02:10;;;;;;;14.90;8.00;;;8.70;99.90;;;;;;5041325;28;20057;-71
2024/01/31 05:04:36;;;;;;;18.02;6.53;;;8.70;99.90;;;;;;5037664;28;20028;-71
2024/01/31 05:07:03;;;;;;;15.90;6.75;;;8.70;99.90;;;;;;5040229;28;20025;-71
2024/01/31 05:09:28;;;;;;;14.40;7.20;;;8.70;99.90;;;;;;5039480;28;20025;-71
2024/01/31 05:11:54;;;;;;;17.85;7.70;;;8.60;99.90;;;;;;5036885;28;20028;-71
2024/01/31 05:14:20;;;;;;;15.52;6.55;;;8.70;99.90;;;;;;5035644;28;20045;-71
2024/01/31 05:16:47;;;;;;;15.07;7.07;;;8.60;99.90;;;;;;5040015;28;20045;-71
2024/01/31 05:19:13;;;;;;;17.17;6.93;;;8.60;99.90;;;;;;5037173;28;20071;-72
2024/01/31 05:21:50;;;;;;;16.17;6.57;;;8.50;99.90;;;;;;5039648;28;20026;-72
2024/01/31 05:24:17;;;;;;;14.57;6.65;;;8.50;99.90;;;;;;5037803;28;20397;-72
2024/01/31 05:26:45;;;;;;;14.13;6.22;;;8.50;99.90;;;;;;5033786;28;20480;-72
2024/01/31 05:29:10;;;;;;;13.30;6.60;;;8.50;99.90;;;;;;5037302;28;20080;-72
2024/01/31 05:31:36;;;;;;;13.35;6.60;;;8.50;99.90;;;;;;5019097;28;20064;-71
2024/01/31 05:34:02;;;;;;;20.63;6.53;;;8.40;99.90;;;;;;5037075;28;20037;-72
2024/01/31 05:36:28;;;;;;;10.27;5.25;;;8.40;99.90;;;;;;5036221;28;20025;-71
2024/01/31 05:38:54;;;;;;;11.90;6.32;;;8.50;99.90;;;;;;5019229;28;20025;-71
2024/01/31 05:41:20;;;;;;;12.25;6.18;;;8.50;99.90;;;;;;5040897;28;20036;-71
2024/01/31 05:43:46;;;;;;;8.80;5.82;;;8.40;99.90;;;;;;5039795;28;20036;-72
2024/01/31 05:46:20;;;;;;;13.63;5.45;;;8.40;99.90;;;;;;5038996;28;20032;-70
2024/01/31 05:48:47;;;;;;;9.43;4.65;;;8.40;99.90;;;;;;5032579;28;20030;-71
2024/01/31 05:51:14;;;;;;;8.43;4.90;;;8.40;99.90;;;;;;5039618;28;20017;-72
2024/01/31 05:53:42;;;;;;;15.20;4.30;;;8.30;99.90;;;;;;5035665;28;20029;-72
2024/01/31 05:56:08;;;;;;;12.75;4.88;;;8.40;99.90;;;;;;5030422;28;20064;-70
2024/01/31 05:58:34;;;;;;;11.68;4.47;;;8.30;99.90;;;;;;5027637;28;20814;-70
2024/01/31 06:01:00;;;;;;;14.02;4.75;;;8.30;99.90;;;;;;5051905;28;20033;-72
2024/01/31 06:03:28;;;;;;;10.13;4.68;;;8.30;99.90;;;;;;5028069;28;20493;-72
2024/01/31 06:05:53;;;;;;;6.88;3.80;;;8.30;99.90;;;;;;5031808;28;20098;-70
2024/01/31 06:08:22;;;;;;;10.82;4.20;;;8.30;99.90;;;;;;5030997;28;21260;-72
2024/01/31 06:10:53;;;;;;;20.98;5.13;;;8.30;99.90;;;;;;5031401;28;20429;-71
2024/01/31 06:13:19;;;;;;;14.82;5.10;;;8.30;99.90;;;;;;5029879;28;20025;-70
2024/01/31 06:15:45;;;;;;;10.25;4.70;;;8.20;99.90;;;;;;5029819;28;20584;-70
2024/01/31 06:18:11;;;;;;;14.00;5.45;;;8.20;99.90;;;;;;5024182;28;20069;-70
2024/01/31 06:20:40;;;;;;;15.88;4.80;;;8.20;99.90;;;;;;5029157;28;20025;-70
2024/01/31 06:23:09;;;;;;;9.98;4.95;;;8.20;99.90;;;;;;5029834;28;20040;-71
2024/01/31 06:25:38;;;;;;;6.75;3.75;;;8.20;99.90;;;;;;5032937;28;20033;-71
2024/01/31 06:28:06;;;;;;;10.90;5.32;;;8.10;99.90;;;;;;5027774;28;20117;-71
2024/01/31 06:30:40;;;;;;;12.48;5.10;;;8.10;99.90;;;;;;5026691;28;20017;-71
2024/01/31 06:33:07;;;;;;;13.68;4.65;;;8.10;99.90;;;;;;5028262;28;20099;-71
2024/01/31 06:35:38;;;;;;;10.23;5.05;;;8.00;99.90;;;;;;5045617;28;20040;-71
2024/01/31 06:38:04;;;;;;;12.00;5.78;;;7.90;99.90;;;;;;5027895;28;20068;-71
2024/01/31 06:40:30;;;;;;;8.68;5.15;;;7.90;99.90;;;;;;5029213;28;20048;-70
2024/01/31 06:42:57;;;;;;;8.07;3.67;;;7.80;99.90;;;;;;5029995;28;20042;-70
2024/01/31 06:45:24;;;;;;;8.45;4.65;;;7.80;99.90;;;;;;5026302;28;20029;-70
2024/01/31 06:47:54;;;;;;;7.40;4.25;;;7.60;99.90;;;;;;5029785;28;20065;-70
2024/01/31 06:50:21;;;;;;;6.90;3.88;;;7.60;99.90;;;;;;5025412;28;20064;-70
2024/01/31 06:52:47;;;;;;;8.13;4.47;;;7.50;99.90;;;;;;5028661;28;20033;-70
2024/01/31 06:55:14;;;;;;;5.30;3.17;;;7.40;99.90;;;;;;5026004;28;20570;-70
2024/01/31 06:57:40;;;;;;;11.00;4.65;;;7.40;99.90;;;;;;5027219;28;20481;-69
2024/01/31 07:00:10;;;;;;;14.43;4.38;;;7.40;99.90;;;;;;5029166;28;20030;-70
2024/01/31 07:02:36;;;;;;;10.52;4.88;;;7.30;99.90;;;;;;5027433;28;20029;-70
2024/01/31 07:05:04;;;;;;;11.60;4.80;;;7.40;99.90;;;;;;5032109;28;20033;-70
2024/01/31 07:07:30;;;;;;;13.98;5.32;;;7.30;99.90;;;;;;5043070;28;20034;-61
2024/01/31 07:09:56;;;;;;;8.48;4.57;;;7.40;99.90;;;;;;5030620;28;20025;-70
2024/01/31 07:12:22;;;;;;;8.25;4.22;;;7.40;99.90;;;;;;5028027;28;20112;-69
2024/01/31 07:14:48;;;;;;;6.15;3.53;;;7.50;99.90;;;;;;5029178;28;20037;-69
2024/01/31 07:17:14;;;;;;;10.15;4.50;;;7.50;99.90;;;;;;5029194;28;20029;-69
2024/01/31 07:19:43;;;;;;;21.20;5.45;;;7.50;99.90;;;;;;5026155;28;20034;-71
2024/01/31 07:22:10;;;;;;;10.70;4.70;;;7.50;99.90;;;;;;5012284;28;20490;-71
2024/01/31 07:24:36;;;;;;;15.00;5.00;;;7.60;99.90;;;;;;5044343;28;20033;-71
2024/01/31 07:27:02;;;;;;;10.60;4.85;;;7.60;99.90;;;;;;5016701;28;20494;-71
2024/01/31 07:29:29;;;;;;;16.58;4.93;;;7.50;99.90;;;;;;5033081;28;20021;-71
2024/01/31 07:31:55;;;;;;;7.28;4.05;;;7.50;99.90;;;;;;5031337;28;20812;-71
2024/01/31 07:34:21;;;;;;;7.28;3.88;;;7.50;99.90;;;;;;4987256;28;20059;-70
2024/01/31 07:36:47;;;;;;;8.73;4.30;;;7.50;99.90;;;;;;4934332;28;20550;-70
2024/01/31 07:39:14;;;;;;;8.27;3.65;;;7.50;99.90;;;;;;4951073;28;20122;-70
2024/01/31 07:41:40;;;;;;;6.43;3.78;;;7.40;99.90;;;;;;4948533;28;20250;-70
2024/01/31 07:44:06;;;;;;;6.53;3.20;;;7.20;99.90;;;;;;4939414;28;20040;-70
2024/01/31 07:46:32;;;;;;;9.48;4.50;;;7.00;99.90;;;;;;4942707;28;20027;-70
2024/01/31 07:48:57;;;;;;;7.63;4.28;;;7.00;99.90;;;;;;4947866;28;20384;-70
2024/01/31 07:51:23;;;;;;;11.15;4.82;;;7.00;99.90;;;;;;4942193;28;20069;-69
2024/01/31 07:53:49;;;;;;;7.72;4.28;;;7.20;99.90;;;;;;4950878;28;20664;-69
2024/01/31 07:56:15;;;;;;;15.20;4.53;;;7.30;99.90;;;;;;4934118;28;20054;-70
2024/01/31 07:58:41;;;;;;;10.68;4.65;;;7.30;99.90;;;;;;4950252;28;20023;-70
2024/01/31 08:01:06;;;;;;;11.32;4.13;;;7.30;99.90;;;;;;4952727;28;20032;-70
2024/01/31 08:03:34;;;;;;;7.35;4.03;;;7.20;99.90;;;;;;4941065;28;20507;-70
2024/01/31 08:06:00;;;;;;;8.98;3.58;;;7.20;99.90;;;;;;4945016;29;20114;-70
2024/01/31 08:08:27;;;;;;;8.18;3.67;;;7.30;99.90;;;;;;4943613;28;20119;-71
2024/01/31 08:10:53;;;;;;;16.13;4.10;;;7.50;99.90;;;;;;4941653;28;20165;-71
2024/01/31 08:13:18;;;;;;;6.35;3.38;;;7.60;99.90;;;;;;4943437;28;20126;-70
2024/01/31 08:15:44;;;;;;;11.73;4.40;;;7.70;99.90;;;;;;4952619;28;20065;-70
2024/01/31 08:18:10;;;;;;;14.07;4.47;;;7.80;99.90;;;;;;4962407;28;20031;-70
2024/01/31 08:20:36;;;;;;;8.68;4.57;;;7.80;99.90;;;;;;4935741;28;20073;-70
2024/01/31 08:23:02;;;;;;;11.70;3.67;;;7.90;99.90;;;;;;4949346;28;20031;-70
2024/01/31 08:25:28;;;;;;;7.57;3.50;;;7.80;99.90;;;;;;4950886;28;20034;-70
2024/01/31 08:27:54;;;;;;;6.60;3.30;;;7.90;99.90;;;;;;4934097;28;20034;-70
2024/01/31 08:30:21;;;;;;;5.80;3.33;;;8.00;99.90;;;;;;4951493;28;20035;-70
2024/01/31 08:32:49;;;;;;;10.88;3.85;;;8.10;99.90;;;;;;4948847;29;20031;-70
2024/01/31 08:35:15;;;;;;;14.93;3.30;;;8.20;99.90;;;;;;4949830;28;20110;-70
2024/01/31 08:37:41;;;;;;;8.20;4.00;;;8.40;99.90;;;;;;5016465;28;20022;-72
2024/01/31 08:40:10;;;;;;;5.82;2.83;;;8.50;99.90;;;;;;4928956;28;20036;-70
2024/01/31 08:42:39;;;;;;;11.27;3.13;;;8.50;99.90;;;;;;4946476;29;20042;-71
2024/01/31 08:45:07;;;;;;;6.55;3.03;;;8.50;99.90;;;;;;4947269;28;20399;-70
2024/01/31 08:47:33;;;;;;;6.45;3.30;;;8.10;99.90;;;;;;4933959;28;20139;-70
2024/01/31 08:49:59;;;;;;;9.02;3.58;;;7.90;99.90;;;;;;4929399;28;20450;-70
2024/01/31 08:52:25;;;;;;;6.90;4.07;;;7.90;99.90;;;;;;4927711;29;20032;-70
2024/01/31 08:54:51;;;;;;;10.75;4.78;;;7.90;99.90;;;;;;4949075;28;20035;-70
2024/01/31 08:57:17;;;;;;;20.73;5.07;;;7.90;99.90;;;;;;4930209;28;20484;-74
2024/01/31 08:59:43;;;;;;;9.27;3.72;;;7.90;99.90;;;;;;4933401;28;20039;-75
2024/01/31 09:02:09;;;;;;;28.48;11.95;;;8.10;99.90;;;;;;4933016;28;20039;-75
2024/01/31 09:04:35;;;;;;;11.82;5.55;;;8.20;99.90;;;;;;4947343;29;20035;-74
2024/01/31 09:07:01;;;;;;;11.70;4.30;;;8.40;99.90;;;;;;4949933;28;20033;-74
2024/01/31 09:09:27;;;;;;;7.20;4.90;;;8.40;99.90;;;;;;4931504;28;20495;-74
2024/01/31 09:11:53;;;;;;;11.20;5.60;;;8.50;99.90;;;;;;4933198;28;20032;-76
2024/01/31 09:14:19;;;;;;;7.93;5.03;;;8.50;99.90;;;;;;4942136;28;20031;-76
2024/01/31 09:16:46;;;;;;;6.97;4.32;;;8.70;99.90;;;;;;4944808;28;20053;-76
2024/01/31 09:19:12;;;;;;;10.82;6.18;;;8.80;99.90;;;;;;4942150;28;20055;-75
2024/01/31 09:21:38;;;;;;;8.30;4.93;;;8.90;99.90;;;;;;4950616;28;20035;-76
2024/01/31 09:24:04;;;;;;;13.15;5.18;;;8.80;99.90;;;;;;4949240;28;20030;-75
2024/01/31 09:26:31;;;;;;;9.00;4.15;;;8.70;99.90;;;;;;4949102;28;20039;-75
2024/01/31 09:28:57;;;;;;;8.18;4.40;;;8.70;99.90;;;;;;4950170;28;20023;-74
2024/01/31 09:31:25;;;;;;;10.75;3.75;;;8.50;99.90;;;;;;4929765;28;20031;-75
2024/01/31 09:33:53;;;;;;;9.40;4.82;;;8.60;99.90;;;;;;5006146;28;20462;-75
2024/01/31 09:36:19;;;;;;;10.40;4.22;;;8.70;99.90;;;;;;4967166;28;20035;-76
2024/01/31 09:38:49;;;;;;;9.20;4.25;;;8.90;99.90;;;;;;4948074;28;20344;-75
2024/01/31 09:41:16;;;;;;;10.00;4.47;;;9.20;99.90;;;;;;4947584;28;20038;-75
2024/01/31 09:43:44;;;;;;;6.43;3.38;;;9.30;99.90;;;;;;4932929;28;20035;-75
2024/01/31 09:46:11;;;;;;;14.25;4.00;;;8.90;99.90;;;;;;4933375;28;20455;-75
2024/01/31 09:48:38;;;;;;;7.63;3.70;;;9.20;99.90;;;;;;4939849;28;20686;-75
2024/01/31 09:51:06;;;;;;;11.27;3.33;;;9.20;99.90;;;;;;4947935;28;20043;-75
2024/01/31 09:53:36;;;;;;;4.85;3.05;;;9.50;99.90;;;;;;4931502;29;20023;-75
2024/01/31 09:56:05;;;;;;;5.43;2.92;;;9.30;99.90;;;;;;4945810;28;20029;-76
2024/01/31 09:58:36;;;;;;;4.50;2.42;;;9.40;99.90;;;;;;4933120;28;20062;-76
2024/01/31 10:01:05;;;;;;;8.05;2.85;;;9.80;99.90;;;;;;4965102;28;20051;-76
2024/01/31 10:03:31;;;;;;;4.72;2.03;;;9.70;99.90;;;;;;4947593;28;20110;-75
2024/01/31 10:05:57;;;;;;;7.07;1.95;;;9.90;99.90;;;;;;4945153;28;20043;-75
2024/01/31 10:08:28;;;;;;;5.65;1.90;;;9.90;99.90;;;;;;4944760;29;20537;-75
2024/01/31 10:10:54;;;;;;;5.67;2.00;;;10.20;99.90;;;;;;4929970;29;20499;-75
2024/01/31 10:13:20;;;;;;;3.03;1.17;;;10.60;99.90;;;;;;4978839;28;20293;-75
2024/01/31 10:15:46;;;;;;;2.22;1.30;;;10.50;99.90;;;;;;4932074;28;20031;-75
2024/01/31 10:18:12;;;;;;;2.45;1.42;;;10.80;99.90;;;;;;4932268;28;20656;-75
2024/01/31 10:20:38;;;;;;;1.77;0.70;;;11.00;99.90;;;;;;4947031;29;20096;-75
2024/01/31 10:23:04;;;;;;;1.67;0.77;;;12.30;99.90;;;;;;4930412;28;20032;-75
2024/01/31 10:25:30;;;;;;;3.05;1.23;;;12.80;99.20;;;;;;4948147;28;20037;-75
2024/01/31 10:27:56;;;;;;;1.98;1.35;;;12.80;99.90;;;;;;4947213;28;20031;-75
2024/01/31 10:30:22;;;;;;;2.42;1.05;;;12.00;97.20;;;;;;4947844;28;20023;-74
2024/01/31 10:32:50;;;;;;;1.65;0.65;;;13.10;97.60;;;;;;4947033;28;20035;-75
2024/01/31 10:35:17;;;;;;;2.60;1.13;;;15.70;92.10;;;;;;4943032;28;20131;-76
2024/01/31 10:37:42;;;;;;;3.45;0.93;;;14.00;92.40;;;;;;4929192;29;20051;-75
2024/01/31 10:40:09;;;;;;;2.95;1.60;;;14.10;92.20;;;;;;4947364;28;20544;-75
2024/01/31 10:42:36;;;;;;;1.92;1.08;;;15.50;94.60;;;;;;4928085;28;20131;-75
2024/01/31 10:45:03;;;;;;;2.70;1.20;;;18.80;85.60;;;;;;4942131;28;20035;-75
2024/01/31 10:47:29;;;;;;;3.35;1.17;;;17.60;74.30;;;;;;4944476;28;20105;-76
2024/01/31 10:49:55;;;;;;;2.53;1.10;;;17.60;76.80;;;;;;4944318;28;20515;-76
2024/01/31 10:52:27;;;;;;;3.50;1.00;;;19.60;73.20;;;;;;4978769;28;20032;-75
2024/01/31 10:54:58;;;;;;;6.55;1.17;;;19.00;75.00;;;;;;4944448;28;20038;-76
2024/01/31 10:57:26;;;;;;;2.90;1.33;;;19.30;73.00;;;;;;4929634;28;20043;-75
2024/01/31 10:59:55;;;;;;;1.60;1.08;;;18.80;68.20;;;;;;4951595;28;20034;-76
2024/01/31 11:02:31;;;;;;;3.30;1.33;;;17.20;75.00;;;;;;4982332;28;20025;-76
2024/01/31 11:05:04;;;;;;;1.85;0.98;;;16.40;73.80;;;;;;4962173;28;20023;-76
2024/01/31 11:07:30;;;;;;;5.20;1.25;;;15.80;75.10;;;;;;4950290;28;20034;-76
2024/01/31 11:09:57;;;;;;;1.73;0.70;;;18.30;72.40;;;;;;4935676;28;20031;-76
2024/01/31 11:12:26;;;;;;;2.38;1.10;;;15.70;74.80;;;;;;4885347;28;20503;-77
2024/01/31 11:14:55;;;;;;;2.85;0.93;;;18.40;76.70;;;;;;4945007;28;20035;-76
2024/01/31 11:17:23;;;;;;;3.05;1.13;;;18.10;72.10;;;;;;4960355;28;20031;-75
2024/01/31 11:19:52;;;;;;;2.63;1.00;;;15.70;77.10;;;;;;4950380;28;20027;-76
2024/01/31 11:22:21;;;;;;;7.03;1.52;;;14.40;81.30;;;;;;4947572;28;20186;-76
2024/01/31 11:24:53;;;;;;;4.80;1.40;;;16.10;81.40;;;;;;4949662;29;20037;-75
2024/01/31 11:27:19;;;;;;;1.40;1.00;;;16.90;77.70;;;;;;4952725;28;20024;-75
2024/01/31 11:29:51;;;;;;;2.13;1.30;;;15.60;78.30;;;;;;4948369;28;20042;-75
2024/01/31 11:32:18;;;;;;;2.58;1.10;;;14.80;82.20;;;;;;4946909;28;20036;-76
2024/01/31 11:34:44;;;;;;;1.70;0.70;;;14.30;81.10;;;;;;4950702;28;20066;-69
2024/01/31 11:37:11;;;;;;;5.82;2.67;;;15.40;83.50;;;;;;4952219;28;20146;-68
2024/01/31 11:39:37;;;;;;;3.47;1.80;;;15.50;80.70;;;;;;4970664;28;20024;-69
2024/01/31 11:42:04;;;;;;;8.45;2.72;;;14.80;83.80;;;;;;4950740;28;20042;-68
2024/01/31 11:44:30;;;;;;;3.17;1.52;;;14.40;85.60;;;;;;4949312;28;20020;-68
2024/01/31 11:46:57;;;;;;;17.42;1.98;;;12.70;90.50;;;;;;4947297;28;20024;-68
2024/01/31 11:49:22;;;;;;;3.50;1.40;;;13.10;92.10;;;;;;4937167;28;20031;-68
2024/01/31 11:51:49;;;;;;;4.03;1.70;;;13.10;92.30;;;;;;4951170;28;20050;-67
2024/01/31 11:54:16;;;;;;;3.15;1.45;;;12.90;92.50;;;;;;4948957;28;20034;-68
2024/01/31 11:56:42;;;;;;;3.53;1.58;;;12.90;94.10;;;;;;4950380;28;20035;-70
2024/01/31 11:59:08;;;;;;;5.03;1.73;;;12.90;95.20;;;;;;4950025;28;20050;-69
2024/01/31 12:01:37;;;;;;;4.05;1.52;;;13.10;95.40;;;;;;4952239;28;20061;-70
2024/01/31 12:04:04;;;;;;;2.95;1.75;;;12.00;96.00;;;;;;4944022;28;20395;-69
2024/01/31 12:06:30;;;;;;;4.18;1.60;;;11.70;98.30;;;;;;4949386;28;20027;-67
2024/01/31 12:08:56;;;;;;;4.57;1.73;;;11.70;99.20;;;;;;4965081;28;20106;-67
2024/01/31 12:11:23;;;;;;;3.45;1.10;;;11.40;98.20;;;;;;4949684;28;20114;-67
2024/01/31 12:13:49;;;;;;;1.98;0.75;;;11.30;99.00;;;;;;4948416;28;20092;-68
2024/01/31 12:16:15;;;;;;;3.30;1.15;;;11.10;99.90;;;;;;4948898;28;20038;-68
2024/01/31 12:18:40;;;;;;;7.00;0.82;;;11.20;99.90;;;;;;4950064;28;20035;-68
2024/01/31 12:21:10;;;;;;;6.07;1.65;;;11.40;99.90;;;;;;4950916;28;20089;-69
2024/01/31 12:23:36;;;;;;;1.83;0.85;;;11.10;99.90;;;;;;4937815;28;20514;-68
2024/01/31 12:26:02;;;;;;;8.65;1.85;;;11.10;99.90;;;;;;4926792;28;20035;-68
2024/01/31 12:28:28;;;;;;;6.05;1.42;;;11.20;99.90;;;;;;4950843;28;20038;-68
2024/01/31 12:30:54;;;;;;;3.83;1.75;;;11.30;99.90;;;;;;4970006;28;20131;-68
2024/01/31 12:33:20;;;;;;;3.00;1.55;;;11.10;99.90;;;;;;4946969;28;20031;-68
2024/01/31 12:35:46;;;;;;;3.90;1.73;;;10.80;99.90;;;;;;4964469;28;20043;-68
2024/01/31 12:38:15;;;;;;;5.70;1.35;;;10.60;99.90;;;;;;4931864;28;20114;-68
2024/01/31 12:40:41;;;;;;;4.75;1.52;;;10.50;99.90;;;;;;4948180;28;20166;-68
2024/01/31 12:43:07;;;;;;;7.32;1.73;;;10.60;99.90;;;;;;4941068;28;20075;-68
2024/01/31 12:45:33;;;;;;;3.38;1.13;;;10.70;99.90;;;;;;4949434;28;20051;-68
2024/01/31 12:48:00;;;;;;;3.28;1.38;;;10.80;99.90;;;;;;4948747;28;20035;-68